Time;durP1;ratioP1;P1;durP2;ratioP2;P2;SDS_P1;SDS_P2;PMS_P1;PMS_P2;Temp;Humidity;BMP_temperature;BMP_pressure;BME280_temperature;BME280_humidity;BME280_pressure;Samples;Min_cycle;Max_cycle;Signal;HPM_P1;HPM_P2
2022/04/01 00:01:57;;;;;;;6.65;2.53;;;;;;;;;;5029973;28;20488;-61
2022/04/01 00:04:22;;;;;;;5.20;2.92;;;;;;;;;;5030049;28;20120;-61
2022/04/01 00:06:48;;;;;;;11.43;3.35;;;;;;;;;;5029609;28;20026;-61
2022/04/01 00:09:13;;;;;;;9.77;2.97;;;;;;;;;;5023810;28;20052;-62
2022/04/01 00:11:39;;;;;;;6.75;2.95;;;;;;;;;;5029457;28;20034;-61
2022/04/01 00:14:05;;;;;;;4.90;2.45;;;;;;;;;;5029240;28;20029;-60
2022/04/01 00:16:31;;;;;;;4.82;2.53;;;;;;;;;;5029623;28;20021;-61
2022/04/01 00:18:57;;;;;;;5.45;2.40;;;;;;;;;;5029731;28;20057;-61
2022/04/01 00:21:24;;;;;;;6.53;2.70;;;;;;;;;;5029815;28;20403;-62
2022/04/01 00:23:49;;;;;;;5.95;3.47;;;;;;;;;;5027093;28;20148;-61
2022/04/01 00:26:15;;;;;;;10.45;3.22;;;;;;;;;;5020162;28;20105;-62
2022/04/01 00:28:40;;;;;;;5.10;2.58;;;;;;;;;;5029494;28;20025;-61
2022/04/01 00:31:06;;;;;;;7.18;3.22;;;;;;;;;;5029762;28;20044;-62
2022/04/01 00:33:31;;;;;;;8.50;2.92;;;;;;;;;;5020135;28;20030;-60
2022/04/01 00:35:57;;;;;;;5.35;2.92;;;;;;;;;;5029859;28;20489;-61
2022/04/01 00:38:23;;;;;;;5.82;2.75;;;;;;;;;;5030064;28;20386;-61
2022/04/01 00:40:51;;;;;;;5.43;2.70;;;;;;;;;;5029410;28;20036;-61
2022/04/01 00:43:24;;;;;;;9.88;3.35;;;;;;;;;;5029302;28;20076;-61
2022/04/01 00:45:50;;;;;;;6.82;3.38;;;;;;;;;;5012543;28;20030;-60
2022/04/01 00:48:17;;;;;;;6.55;3.17;;;;;;;;;;5030357;28;20485;-61
2022/04/01 00:50:43;;;;;;;4.88;2.50;;;;;;;;;;5030669;28;20018;-63
2022/04/01 00:53:08;;;;;;;5.80;2.92;;;;;;;;;;5030634;28;20488;-61
2022/04/01 00:55:34;;;;;;;5.95;2.95;;;;;;;;;;5030342;28;20484;-63
2022/04/01 00:58:00;;;;;;;6.40;2.45;;;;;;;;;;5031901;28;20030;-61
2022/04/01 01:00:28;;;;;;;9.40;2.35;;;;;;;;;;5034294;28;20026;-64
2022/04/01 01:02:54;;;;;;;5.25;2.50;;;;;;;;;;5034071;28;20033;-60
2022/04/01 01:05:20;;;;;;;5.82;2.60;;;;;;;;;;5033986;28;20367;-60
2022/04/01 01:07:48;;;;;;;5.88;2.90;;;;;;;;;;5034371;28;20045;-63
2022/04/01 01:10:16;;;;;;;6.75;2.70;;;;;;;;;;5016005;28;20143;-61
2022/04/01 01:12:43;;;;;;;4.97;2.10;;;;;;;;;;5033982;28;20114;-63
2022/04/01 01:15:18;;;;;;;6.40;2.65;;;;;;;;;;5034043;28;20071;-61
2022/04/01 01:17:44;;;;;;;8.05;2.55;;;;;;;;;;5033601;28;20021;-60
2022/04/01 01:20:17;;;;;;;5.97;2.30;;;;;;;;;;5033280;28;20394;-60
2022/04/01 01:22:47;;;;;;;5.63;2.50;;;;;;;;;;5033631;28;20037;-61
2022/04/01 01:25:15;;;;;;;8.23;3.00;;;;;;;;;;5033189;28;20076;-60
2022/04/01 01:27:43;;;;;;;8.48;2.90;;;;;;;;;;5033350;28;20068;-60
2022/04/01 01:30:09;;;;;;;5.80;2.75;;;;;;;;;;5033513;28;20029;-60
2022/04/01 01:32:35;;;;;;;7.10;2.58;;;;;;;;;;5033578;28;20026;-59
2022/04/01 01:35:03;;;;;;;4.72;2.70;;;;;;;;;;5033512;28;20033;-61
2022/04/01 01:37:28;;;;;;;5.38;2.63;;;;;;;;;;5033610;28;20166;-63
2022/04/01 01:39:55;;;;;;;4.40;2.28;;;;;;;;;;5033386;28;20518;-62
2022/04/01 01:42:21;;;;;;;5.20;2.45;;;;;;;;;;5033469;28;20383;-63
2022/04/01 01:44:47;;;;;;;8.80;3.45;;;;;;;;;;5033377;28;20025;-62
2022/04/01 01:47:13;;;;;;;4.85;2.40;;;;;;;;;;5033115;28;20033;-62
2022/04/01 01:54:42;;;;;;;5.32;2.78;;;;;;;;;;5033247;28;20029;-62
2022/04/01 01:55:08;;;;;;;6.70;2.30;;;;;;;;;;5032956;28;20027;-63
2022/04/01 01:57:35;;;;;;;4.88;2.40;;;;;;;;;;5033288;28;20395;-62
2022/04/01 02:00:10;;;;;;;6.22;3.00;;;;;;;;;;5033057;28;20025;-62
2022/04/01 02:02:37;;;;;;;8.38;3.10;;;;;;;;;;5033286;28;20410;-63
2022/04/01 02:05:04;;;;;;;8.70;2.70;;;;;;;;;;5033099;28;20094;-63
2022/04/01 02:07:29;;;;;;;7.65;2.70;;;;;;;;;;5032936;28;20100;-61
2022/04/01 02:09:55;;;;;;;4.35;2.65;;;;;;;;;;5032767;28;20068;-61
2022/04/01 02:12:21;;;;;;;5.80;2.65;;;;;;;;;;5033251;28;20022;-61
2022/04/01 02:14:46;;;;;;;4.95;2.30;;;;;;;;;;5032890;28;20083;-63
2022/04/01 02:17:12;;;;;;;4.32;2.50;;;;;;;;;;5032865;28;20513;-62
2022/04/01 02:19:37;;;;;;;4.30;2.08;;;;;;;;;;5032587;28;20258;-62
2022/04/01 02:22:05;;;;;;;6.05;2.53;;;;;;;;;;5032588;28;20036;-64
2022/04/01 02:24:31;;;;;;;5.20;2.42;;;;;;;;;;5032489;28;20406;-63
2022/04/01 02:26:56;;;;;;;3.47;2.13;;;;;;;;;;5032703;28;20022;-63
2022/04/01 02:29:23;;;;;;;5.88;2.47;;;;;;;;;;5032527;28;20033;-63
2022/04/01 02:31:50;;;;;;;5.80;2.58;;;;;;;;;;5032697;28;20176;-63
2022/04/01 02:34:25;;;;;;;9.43;3.35;;;;;;;;;;5032506;28;20033;-63
2022/04/01 02:36:51;;;;;;;4.72;2.40;;;;;;;;;;5032671;28;20021;-63
2022/04/01 02:39:18;;;;;;;5.90;2.55;;;;;;;;;;5032293;28;20030;-62
2022/04/01 02:41:44;;;;;;;4.20;2.30;;;;;;;;;;5032592;28;20081;-63
2022/04/01 02:44:12;;;;;;;6.22;2.85;;;;;;;;;;5032324;28;20064;-63
2022/04/01 02:46:43;;;;;;;5.90;3.30;;;;;;;;;;5032134;28;20029;-64
2022/04/01 02:49:11;;;;;;;6.80;2.78;;;;;;;;;;5032185;28;20029;-63
2022/04/01 02:51:39;;;;;;;6.22;2.83;;;;;;;;;;5032087;28;20113;-63
2022/04/01 02:54:06;;;;;;;4.07;2.38;;;;;;;;;;5032119;28;20029;-61
2022/04/01 02:56:33;;;;;;;3.63;2.25;;;;;;;;;;5032040;28;20351;-62
2022/04/01 02:59:00;;;;;;;4.25;2.38;;;;;;;;;;5032078;28;20418;-63
2022/04/01 03:01:27;;;;;;;5.57;2.38;;;;;;;;;;5032164;28;20025;-62
2022/04/01 03:03:53;;;;;;;5.55;2.35;;;;;;;;;;5031984;28;20029;-61
2022/04/01 03:06:18;;;;;;;7.72;2.88;;;;;;;;;;5031895;28;20117;-60
2022/04/01 03:08:45;;;;;;;7.07;2.83;;;;;;;;;;5031644;28;20433;-63
2022/04/01 03:11:11;;;;;;;6.00;2.60;;;;;;;;;;5031874;28;20033;-60
2022/04/01 03:13:37;;;;;;;3.15;1.77;;;;;;;;;;5031667;28;20025;-61
2022/04/01 03:16:02;;;;;;;6.68;2.50;;;;;;;;;;5031641;28;20078;-61
2022/04/01 03:18:28;;;;;;;8.07;3.22;;;;;;;;;;5031475;28;20407;-61
2022/04/01 03:20:53;;;;;;;5.50;2.50;;;;;;;;;;5030188;28;20025;-60
2022/04/01 03:23:19;;;;;;;8.63;2.83;;;;;;;;;;5030594;28;20021;-61
2022/04/01 03:25:45;;;;;;;10.20;3.45;;;;;;;;;;5030945;28;20052;-60
2022/04/01 03:28:11;;;;;;;8.80;2.72;;;;;;;;;;5030820;28;20053;-60
2022/04/01 03:30:37;;;;;;;8.20;2.83;;;;;;;;;;5030743;28;20026;-61
2022/04/01 03:33:03;;;;;;;10.85;3.13;;;;;;;;;;5030863;28;20032;-60
2022/04/01 03:35:29;;;;;;;12.77;3.30;;;;;;;;;;5030534;28;20029;-60
2022/04/01 03:37:54;;;;;;;9.48;3.03;;;;;;;;;;5030588;28;20021;-60
2022/04/01 03:40:21;;;;;;;9.80;3.65;;;;;;;;;;5030441;28;20112;-60
2022/04/01 03:42:51;;;;;;;7.72;2.38;;;;;;;;;;5030719;28;20033;-61
2022/04/01 03:45:17;;;;;;;12.25;2.92;;;;;;;;;;5030475;28;20467;-60
2022/04/01 03:48:00;;;;;;;9.60;3.47;;;;;;;;;;5030176;28;20147;-60
2022/04/01 03:50:32;;;;;;;14.13;3.97;;;;;;;;;;5030646;28;20374;-61
2022/04/01 03:53:08;;;;;;;6.47;2.33;;;;;;;;;;5030061;28;20060;-60
2022/04/01 03:55:36;;;;;;;28.63;5.32;;;;;;;;;;5030161;28;20029;-61
2022/04/01 03:58:07;;;;;;;10.90;3.60;;;;;;;;;;5030270;28;20022;-60
2022/04/01 04:00:33;;;;;;;5.75;2.20;;;;;;;;;;5030161;28;20024;-60
2022/04/01 04:02:59;;;;;;;6.45;2.45;;;;;;;;;;5030364;28;20029;-60
2022/04/01 04:05:27;;;;;;;12.90;4.20;;;;;;;;;;5029872;28;20435;-61
2022/04/01 04:07:53;;;;;;;9.77;3.33;;;;;;;;;;5030469;28;20113;-60
2022/04/01 04:10:21;;;;;;;16.50;3.90;;;;;;;;;;5030040;28;20044;-62
2022/04/01 04:12:48;;;;;;;8.63;3.47;;;;;;;;;;5030224;28;20033;-60
2022/04/01 04:15:14;;;;;;;11.05;3.45;;;;;;;;;;5030140;28;20426;-61
2022/04/01 04:20:33;;;;;;;6.97;2.25;;;;;;;;;;5067364;28;20449;-58
2022/04/01 04:23:07;;;;;;;11.60;3.42;;;;;;;;;;5068112;28;20028;-59
2022/04/01 04:25:37;;;;;;;14.70;4.38;;;;;;;;;;5068129;28;20727;-60
2022/04/01 04:28:09;;;;;;;5.63;2.70;;;;;;;;;;5068188;28;20480;-60
2022/04/01 04:30:38;;;;;;;15.57;4.20;;;;;;;;;;5068236;28;20035;-59
2022/04/01 04:33:04;;;;;;;6.95;2.80;;;;;;;;;;5068070;28;20024;-59
2022/04/01 04:35:29;;;;;;;6.85;2.78;;;;;;;;;;5067843;28;20036;-60
2022/04/01 04:37:57;;;;;;;15.18;4.10;;;;;;;;;;5068214;28;20024;-59
2022/04/01 04:40:23;;;;;;;8.65;2.83;;;;;;;;;;5067649;28;20025;-59
2022/04/01 04:42:49;;;;;;;20.92;5.13;;;;;;;;;;5068288;28;20389;-59
2022/04/01 04:45:20;;;;;;;13.18;3.45;;;;;;;;;;5067758;28;20077;-59
2022/04/01 04:47:47;;;;;;;6.35;2.45;;;;;;;;;;5067890;28;20032;-60
2022/04/01 04:50:16;;;;;;;6.95;2.63;;;;;;;;;;5058759;28;20064;-59
2022/04/01 04:52:44;;;;;;;13.88;3.83;;;;;;;;;;5047915;28;20022;-61
2022/04/01 04:55:17;;;;;;;10.07;3.45;;;;;;;;;;5047518;28;20034;-62
2022/04/01 04:57:44;;;;;;;9.23;2.80;;;;;;;;;;5047878;28;20193;-60
2022/04/01 05:00:11;;;;;;;13.80;3.63;;;;;;;;;;5047576;28;20645;-59
2022/04/01 05:03:09;;;;;;;10.10;3.28;;;;;;;;;;5047159;28;20030;-61
2022/04/01 05:05:47;;;;;;;18.15;2.92;;;;;;;;;;5047338;28;20120;-60
2022/04/01 05:08:46;;;;;;;13.10;3.22;;;;;;;;;;5047343;28;20071;-60
2022/04/01 05:11:47;;;;;;;9.88;3.40;;;;;;;;;;5047290;28;20037;-60
2022/04/01 05:14:21;;;;;;;6.28;2.80;;;;;;;;;;5047317;28;20354;-61
2022/04/01 05:16:49;;;;;;;9.63;3.67;;;;;;;;;;5047267;28;20489;-62
2022/04/01 05:19:22;;;;;;;6.93;2.20;;;;;;;;;;5047039;28;20041;-60
2022/04/01 05:22:06;;;;;;;9.30;2.47;;;;;;;;;;5047185;28;20239;-60
2022/04/01 05:24:44;;;;;;;4.35;1.98;;;;;;;;;;5047041;28;20025;-60
2022/04/01 05:27:26;;;;;;;16.23;2.58;;;;;;;;;;5047170;28;20094;-62
2022/04/01 05:30:12;;;;;;;8.93;2.75;;;;;;;;;;5044106;28;20032;-62
2022/04/01 05:32:39;;;;;;;10.57;2.22;;;;;;;;;;5033650;28;20036;-62
2022/04/01 05:35:06;;;;;;;5.93;2.70;;;;;;;;;;5033589;28;20463;-60
2022/04/01 05:37:34;;;;;;;7.13;2.53;;;;;;;;;;5033750;28;20485;-62
2022/04/01 05:40:05;;;;;;;5.18;2.05;;;;;;;;;;5033493;28;20065;-60
2022/04/01 05:42:33;;;;;;;4.63;2.40;;;;;;;;;;5033704;28;20057;-62
2022/04/01 05:45:01;;;;;;;8.05;2.72;;;;;;;;;;5033558;28;20026;-61
2022/04/01 05:47:30;;;;;;;5.38;2.70;;;;;;;;;;5033395;28;20518;-62
2022/04/01 05:49:57;;;;;;;5.88;2.30;;;;;;;;;;5033133;28;20025;-61
2022/04/01 05:52:23;;;;;;;6.25;2.05;;;;;;;;;;5033316;28;20033;-62
2022/04/01 05:54:48;;;;;;;6.20;2.95;;;;;;;;;;5033252;28;20040;-61
2022/04/01 05:57:18;;;;;;;6.47;2.40;;;;;;;;;;5033313;28;20032;-60
2022/04/01 05:59:43;;;;;;;5.82;2.70;;;;;;;;;;5033075;28;20031;-62
2022/04/01 06:02:35;;;;;;;6.80;2.50;;;;;;;;;;5032899;28;20108;-61
2022/04/01 06:05:43;;;;;;;6.68;2.58;;;;;;;;;;5032947;28;20025;-63
2022/04/01 06:08:56;;;;;;;4.72;2.53;;;;;;;;;;5010631;28;20483;-61
2022/04/01 06:11:41;;;;;;;6.40;2.72;;;;;;;;;;4970941;28;20049;-60
2022/04/01 06:14:40;;;;;;;6.38;2.83;;;;;;;;;;4971325;28;20039;-60
2022/04/01 06:17:23;;;;;;;9.63;2.83;;;;;;;;;;4971043;28;20498;-61
2022/04/01 06:19:51;;;;;;;4.70;2.40;;;;;;;;;;4971149;28;20053;-60
2022/04/01 06:22:20;;;;;;;7.82;3.00;;;;;;;;;;4971695;28;20110;-62
2022/04/01 06:25:10;;;;;;;13.88;2.85;;;;;;;;;;4971164;28;20503;-60
2022/04/01 06:27:45;;;;;;;5.18;2.63;;;;;;;;;;4971556;28;20045;-63
2022/04/01 06:30:17;;;;;;;8.98;3.28;;;;;;;;;;4971237;28;20139;-61
2022/04/01 06:32:52;;;;;;;6.93;2.83;;;;;;;;;;4971526;28;20090;-62
2022/04/01 06:35:21;;;;;;;8.52;2.50;;;;;;;;;;4971422;28;20101;-63
2022/04/01 06:37:58;;;;;;;8.88;2.45;;;;;;;;;;4971386;28;20038;-60
2022/04/01 06:40:34;;;;;;;5.63;2.55;;;;;;;;;;4971325;28;20109;-62
2022/04/01 06:43:00;;;;;;;9.13;3.80;;;;;;;;;;4970398;28;20606;-62
2022/04/01 06:45:26;;;;;;;9.60;3.00;;;;;;;;;;5014760;28;20136;-62
2022/04/01 06:47:52;;;;;;;9.40;3.30;;;;;;;;;;5032411;28;20041;-63
2022/04/01 06:50:20;;;;;;;8.07;3.42;;;;;;;;;;5032185;28;20033;-62
2022/04/01 06:52:46;;;;;;;10.57;4.13;;;;;;;;;;5032285;28;20442;-60
2022/04/01 06:55:12;;;;;;;9.60;3.70;;;;;;;;;;5032123;28;20017;-62
2022/04/01 06:57:38;;;;;;;10.75;3.03;;;;;;;;;;5032044;28;20036;-63
2022/04/01 07:00:09;;;;;;;11.40;2.97;;;;;;;;;;5032279;28;20437;-62
2022/04/01 07:02:35;;;;;;;9.05;2.58;;;;;;;;;;5032135;28;20029;-62
2022/04/01 07:05:02;;;;;;;9.70;3.03;;;;;;;;;;5031751;28;20029;-62
2022/04/01 07:07:28;;;;;;;12.55;3.33;;;;;;;;;;5012503;28;20036;-62
2022/04/01 07:09:53;;;;;;;5.63;2.53;;;;;;;;;;5011994;28;20034;-63
2022/04/01 07:12:20;;;;;;;12.65;3.33;;;;;;;;;;5030421;28;20029;-62
2022/04/01 07:14:45;;;;;;;6.15;2.55;;;;;;;;;;5031548;28;20474;-61
2022/04/01 07:17:11;;;;;;;10.13;3.28;;;;;;;;;;5031644;28;20029;-62
2022/04/01 07:19:36;;;;;;;9.05;2.83;;;;;;;;;;5031259;28;20053;-63
2022/04/01 07:22:02;;;;;;;8.23;2.92;;;;;;;;;;5031584;28;20026;-62
2022/04/01 07:24:30;;;;;;;7.13;2.60;;;;;;;;;;5031630;28;20433;-61
2022/04/01 07:26:55;;;;;;;5.53;2.45;;;;;;;;;;5031533;28;20612;-60
2022/04/01 07:29:22;;;;;;;6.75;2.53;;;;;;;;;;5031243;28;20061;-61
2022/04/01 07:34:34;;;;;;;9.35;2.80;;;;;;;;;;5031439;28;20493;-60
2022/04/01 07:37:00;;;;;;;9.55;3.50;;;;;;;;;;5029486;28;20030;-61
2022/04/01 07:39:26;;;;;;;7.57;3.00;;;;;;;;;;5020451;28;20038;-60
2022/04/01 07:41:52;;;;;;;7.50;2.17;;;;;;;;;;5023294;28;20021;-60
2022/04/01 07:44:18;;;;;;;6.22;3.13;;;;;;;;;;5023430;28;20045;-62
2022/04/01 07:46:43;;;;;;;7.00;2.40;;;;;;;;;;5023089;28;20025;-63
2022/04/01 07:49:09;;;;;;;9.98;2.50;;;;;;;;;;5021550;28;20093;-62
2022/04/01 07:51:35;;;;;;;7.13;2.30;;;;;;;;;;5029289;28;20068;-61
2022/04/01 07:54:00;;;;;;;7.70;2.50;;;;;;;;;;5032483;28;20033;-63
2022/04/01 07:56:30;;;;;;;4.47;2.30;;;;;;;;;;5032389;28;20022;-62
2022/04/01 07:58:57;;;;;;;11.23;2.50;;;;;;;;;;5032145;28;20084;-63
2022/04/01 08:01:23;;;;;;;8.20;2.00;;;;;;;;;;5021134;28;20041;-62
2022/04/01 08:03:48;;;;;;;8.32;2.30;;;;;;;;;;5012706;28;20069;-63
2022/04/01 08:06:14;;;;;;;5.22;2.50;;;;;;;;;;5012502;28;20084;-62
2022/04/01 08:08:40;;;;;;;5.85;2.20;;;;;;;;;;5012197;28;20390;-62
2022/04/01 08:11:06;;;;;;;5.88;2.00;;;;;;;;;;5019873;28;20427;-60
2022/04/01 08:13:33;;;;;;;4.15;2.22;;;;;;;;;;5020693;28;20109;-61
2022/04/01 08:15:58;;;;;;;3.72;2.20;;;;;;;;;;5022961;28;20030;-61
2022/04/01 08:18:24;;;;;;;18.10;2.55;;;;;;;;;;5028823;28;20041;-63
2022/04/01 08:20:49;;;;;;;9.52;2.28;;;;;;;;;;5031639;28;20025;-60
2022/04/01 08:23:15;;;;;;;4.53;2.30;;;;;;;;;;5030228;28;20112;-62
2022/04/01 08:25:40;;;;;;;7.90;2.38;;;;;;;;;;5031879;28;20069;-63
2022/04/01 08:28:06;;;;;;;6.88;2.05;;;;;;;;;;5031719;28;20036;-62
2022/04/01 08:30:34;;;;;;;4.75;1.98;;;;;;;;;;5032008;28;20049;-62
2022/04/01 08:33:01;;;;;;;9.15;2.35;;;;;;;;;;5032101;28;20108;-61
2022/04/01 08:35:28;;;;;;;14.43;2.30;;;;;;;;;;5032060;28;20021;-62
2022/04/01 08:37:55;;;;;;;12.73;2.08;;;;;;;;;;5032119;28;20029;-60
2022/04/01 08:40:21;;;;;;;6.10;2.10;;;;;;;;;;5029973;28;20043;-62
2022/04/01 08:42:48;;;;;;;6.32;2.17;;;;;;;;;;5022147;28;20026;-61
2022/04/01 08:45:17;;;;;;;10.55;2.00;;;;;;;;;;5030296;28;20378;-63
2022/04/01 08:47:43;;;;;;;7.20;2.05;;;;;;;;;;5028609;28;20036;-62
2022/04/01 08:50:09;;;;;;;9.88;2.20;;;;;;;;;;5023075;28;20026;-60
2022/04/01 08:52:34;;;;;;;4.47;2.42;;;;;;;;;;5021746;28;20049;-64
2022/04/01 08:55:08;;;;;;;7.15;1.92;;;;;;;;;;5021964;28;20483;-62
2022/04/01 08:57:42;;;;;;;10.18;2.10;;;;;;;;;;5022511;28;20064;-61
2022/04/01 09:00:14;;;;;;;10.50;2.17;;;;;;;;;;5030774;28;20087;-62
2022/04/01 09:02:41;;;;;;;7.65;2.70;;;;;;;;;;5031814;28;20029;-63
2022/04/01 09:05:08;;;;;;;5.00;2.00;;;;;;;;;;5032295;28;20080;-61
2022/04/01 09:07:34;;;;;;;5.03;1.98;;;;;;;;;;5032938;28;20040;-63
2022/04/01 09:10:08;;;;;;;3.70;2.10;;;;;;;;;;5035472;28;20025;-62
2022/04/01 09:12:36;;;;;;;7.68;2.22;;;;;;;;;;5034433;28;20451;-61
2022/04/01 09:15:03;;;;;;;5.90;2.58;;;;;;;;;;5033895;28;20022;-63
2022/04/01 09:17:48;;;;;;;7.55;2.10;;;;;;;;;;5029110;28;20045;-63
2022/04/01 09:20:15;;;;;;;5.53;1.90;;;;;;;;;;5034230;28;20045;-60
2022/04/01 09:22:42;;;;;;;6.05;2.60;;;;;;;;;;5035465;28;20522;-61
2022/04/01 09:25:14;;;;;;;5.68;1.60;;;;;;;;;;5035006;28;20536;-63
2022/04/01 09:27:44;;;;;;;4.25;1.67;;;;;;;;;;5033919;28;20120;-60
2022/04/01 09:30:17;;;;;;;7.07;1.90;;;;;;;;;;5035181;28;20034;-61
2022/04/01 09:32:48;;;;;;;4.22;1.90;;;;;;;;;;5035333;28;20111;-61
2022/04/01 09:35:15;;;;;;;8.05;1.77;;;;;;;;;;5034963;28;20025;-62
2022/04/01 09:37:47;;;;;;;4.50;1.92;;;;;;;;;;5035136;28;20121;-62
2022/04/01 09:40:14;;;;;;;6.68;2.03;;;;;;;;;;5034752;28;20025;-62
2022/04/01 09:42:46;;;;;;;8.55;1.73;;;;;;;;;;5034930;28;20486;-60
2022/04/01 09:45:17;;;;;;;7.15;2.05;;;;;;;;;;5034865;28;20029;-61
2022/04/01 09:47:42;;;;;;;;;;;;;;;;;;5035425;28;20021;-61
2022/04/01 09:50:14;;;;;;;5.50;1.90;;;;;;;;;;5034641;28;19920;-62
2022/04/01 09:52:40;;;;;;;4.93;2.08;;;;;;;;;;5034625;28;20025;-61
2022/04/01 09:55:07;;;;;;;3.53;2.20;;;;;;;;;;5034505;28;20104;-62
2022/04/01 09:57:33;;;;;;;9.40;2.10;;;;;;;;;;5034500;28;20128;-61
2022/04/01 09:59:59;;;;;;;4.82;1.83;;;;;;;;;;5034683;28;20033;-63
2022/04/01 10:02:24;;;;;;;8.93;2.63;;;;;;;;;;5034804;28;20075;-61
2022/04/01 10:04:50;;;;;;;3.70;1.90;;;;;;;;;;5034382;28;20029;-60
2022/04/01 10:07:17;;;;;;;9.82;1.90;;;;;;;;;;5033656;28;20030;-60
2022/04/01 10:09:45;;;;;;;4.63;1.55;;;;;;;;;;5034325;28;20156;-61
2022/04/01 10:12:13;;;;;;;3.90;1.83;;;;;;;;;;5034709;28;20030;-65
2022/04/01 10:14:40;;;;;;;6.15;2.05;;;;;;;;;;5034603;28;20037;-62
2022/04/01 10:17:10;;;;;;;8.10;2.67;;;;;;;;;;5034223;28;20029;-60
2022/04/01 10:19:38;;;;;;;7.30;2.60;;;;;;;;;;5033848;28;20414;-60
2022/04/01 10:22:04;;;;;;;3.60;2.00;;;;;;;;;;5034295;28;20026;-62
2022/04/01 10:24:54;;;;;;;5.20;2.22;;;;;;;;;;5034155;28;20076;-63
2022/04/01 10:27:41;;;;;;;10.20;2.00;;;;;;;;;;5029519;28;20059;-61
2022/04/01 10:30:09;;;;;;;6.38;1.70;;;;;;;;;;5034052;28;20033;-63
2022/04/01 10:32:34;;;;;;;10.50;2.00;;;;;;;;;;5033988;28;20109;-62
2022/04/01 10:35:02;;;;;;;5.70;2.05;;;;;;;;;;5033955;28;20125;-61
2022/04/01 10:37:30;;;;;;;8.90;2.03;;;;;;;;;;5033130;28;20030;-61
2022/04/01 10:39:59;;;;;;;10.73;2.00;;;;;;;;;;5033883;28;20037;-60
2022/04/01 10:42:34;;;;;;;3.50;2.20;;;;;;;;;;5033842;28;20029;-61
2022/04/01 10:45:03;;;;;;;11.40;3.13;;;;;;;;;;5033842;28;20372;-61
2022/04/01 10:53:40;;;;;;;6.18;2.25;;;;;;;;;;5033647;28;20087;-60
2022/04/01 10:56:23;;;;;;;7.95;1.90;;;;;;;;;;5033549;28;20478;-60
2022/04/01 10:59:21;;;;;;;4.93;1.98;;;;;;;;;;5033516;28;20029;-60
2022/04/01 11:01:53;;;;;;;5.18;2.30;;;;;;;;;;5031791;28;20500;-60
2022/04/01 11:04:18;;;;;;;4.70;2.00;;;;;;;;;;5032440;28;20036;-63
2022/04/01 11:07:11;;;;;;;12.25;2.28;;;;;;;;;;5033043;28;20025;-60
2022/04/01 11:09:47;;;;;;;4.68;2.08;;;;;;;;;;5033253;28;20030;-60
2022/04/01 11:12:19;;;;;;;4.55;2.42;;;;;;;;;;5033485;28;20045;-64
2022/04/01 11:14:53;;;;;;;8.13;1.95;;;;;;;;;;5033357;28;20474;-59
2022/04/01 11:17:20;;;;;;;4.88;1.90;;;;;;;;;;5024566;28;20029;-60
2022/04/01 11:20:12;;;;;;;6.22;2.00;;;;;;;;;;5032210;28;20465;-62
2022/04/01 11:22:47;;;;;;;10.63;2.03;;;;;;;;;;5013220;28;20045;-62
2022/04/01 11:25:14;;;;;;;8.90;2.78;;;;;;;;;;5013196;28;20026;-60
2022/04/01 11:27:51;;;;;;;8.25;2.28;;;;;;;;;;5012878;28;20032;-62
2022/04/01 11:30:21;;;;;;;3.80;1.75;;;;;;;;;;5013170;28;20060;-63
2022/04/01 11:32:52;;;;;;;;;;;;;;;;;;5013497;28;20036;-62
2022/04/01 11:35:24;;;;;;;6.68;1.90;;;;;;;;;;5012873;28;19913;-61
2022/04/01 11:37:49;;;;;;;8.07;2.47;;;;;;;;;;5013144;28;20022;-62
2022/04/01 11:40:27;;;;;;;4.10;1.98;;;;;;;;;;5012932;28;20030;-61
2022/04/01 11:42:54;;;;;;;5.88;2.20;;;;;;;;;;5013027;28;20037;-61
2022/04/01 11:45:20;;;;;;;9.35;2.00;;;;;;;;;;5012875;28;20022;-63
2022/04/01 11:47:46;;;;;;;6.47;2.17;;;;;;;;;;5012863;28;20029;-61
2022/04/01 11:50:14;;;;;;;5.55;2.30;;;;;;;;;;5012720;28;20024;-61
2022/04/01 11:52:41;;;;;;;3.28;1.67;;;;;;;;;;5011515;28;20034;-63
2022/04/01 11:55:12;;;;;;;11.50;2.03;;;;;;;;;;5012667;28;20018;-61
2022/04/01 11:57:37;;;;;;;9.00;2.70;;;;;;;;;;5012716;28;20420;-62
2022/04/01 12:00:17;;;;;;;11.27;3.30;;;;;;;;;;5012761;28;20121;-60
2022/04/01 12:02:46;;;;;;;5.57;1.90;;;;;;;;;;5012932;28;20048;-62
2022/04/01 12:05:13;;;;;;;10.95;5.20;;;;;;;;;;5012075;28;20030;-62
2022/04/01 12:10:29;;;;;;;30.58;17.45;;;;;;;;;;5012563;28;20076;-62
2022/04/01 12:13:05;;;;;;;10.23;2.45;;;;;;;;;;5012845;28;20025;-61
2022/04/01 12:15:36;;;;;;;6.80;2.30;;;;;;;;;;5012531;28;20030;-62
2022/04/01 12:18:05;;;;;;;3.97;1.98;;;;;;;;;;5012353;28;20545;-61
2022/04/01 12:20:37;;;;;;;5.60;2.22;;;;;;;;;;5030590;28;20037;-60
2022/04/01 12:23:02;;;;;;;5.05;1.95;;;;;;;;;;5032367;28;20360;-62
2022/04/01 12:25:30;;;;;;;3.42;1.67;;;;;;;;;;5032189;28;20087;-63
2022/04/01 12:28:04;;;;;;;6.45;2.53;;;;;;;;;;5032395;28;20430;-60
2022/04/01 12:30:32;;;;;;;8.02;2.30;;;;;;;;;;5032175;28;20438;-62
2022/04/01 12:33:00;;;;;;;7.38;2.50;;;;;;;;;;5032094;28;20390;-63
2022/04/01 12:35:26;;;;;;;6.00;2.30;;;;;;;;;;5031969;28;20091;-61
2022/04/01 12:38:10;;;;;;;8.27;2.60;;;;;;;;;;5032000;28;20033;-60
2022/04/01 12:40:44;;;;;;;5.43;2.58;;;;;;;;;;5030746;28;20033;-63
2022/04/01 12:43:40;;;;;;;3.72;2.20;;;;;;;;;;5036100;28;20042;-63
2022/04/01 12:46:06;;;;;;;7.57;2.22;;;;;;;;;;5036103;28;20045;-60
2022/04/01 12:48:47;;;;;;;6.63;2.88;;;;;;;;;;5035713;28;20034;-60
2022/04/01 12:51:17;;;;;;;11.80;2.58;;;;;;;;;;5036055;28;20029;-62
2022/04/01 12:54:22;;;;;;;7.97;3.45;;;;;;;;;;5036044;28;20561;-63
2022/04/01 12:56:50;;;;;;;12.25;4.25;;;;;;;;;;5029577;28;20034;-62
2022/04/01 12:59:18;;;;;;;22.00;9.95;;;;;;;;;;5035661;28;20481;-59
2022/04/01 13:02:06;;;;;;;9.93;4.40;;;;;;;;;;5035531;28;20108;-62
2022/04/01 13:04:44;;;;;;;16.17;5.50;;;;;;;;;;5035558;28;20026;-60
2022/04/01 13:07:21;;;;;;;9.57;2.40;;;;;;;;;;5035581;28;20041;-61
2022/04/01 13:09:53;;;;;;;8.50;3.08;;;;;;;;;;5035517;28;20099;-59
2022/04/01 13:12:23;;;;;;;6.30;2.30;;;;;;;;;;5035696;28;20057;-62
2022/04/01 13:15:00;;;;;;;7.88;2.10;;;;;;;;;;5035402;28;20109;-62
2022/04/01 13:17:27;;;;;;;9.23;2.22;;;;;;;;;;5035320;28;20048;-63
2022/04/01 13:19:53;;;;;;;7.60;1.98;;;;;;;;;;5035088;28;20055;-61
2022/04/01 13:22:19;;;;;;;10.52;2.15;;;;;;;;;;5035156;28;20044;-60
2022/04/01 13:24:46;;;;;;;5.22;2.45;;;;;;;;;;5035142;28;20351;-61
2022/04/01 13:27:15;;;;;;;6.40;1.80;;;;;;;;;;5035395;28;20148;-59
2022/04/01 13:29:42;;;;;;;5.57;1.98;;;;;;;;;;5035156;28;20371;-61
2022/04/01 13:32:09;;;;;;;5.47;1.73;;;;;;;;;;5035076;28;20021;-60
2022/04/01 13:34:35;;;;;;;11.45;2.00;;;;;;;;;;5034961;28;20108;-61
2022/04/01 13:37:01;;;;;;;12.98;2.13;;;;;;;;;;5034948;28;20030;-60
2022/04/01 13:39:30;;;;;;;9.55;2.30;;;;;;;;;;5034752;28;20029;-62
2022/04/01 13:41:57;;;;;;;6.75;1.95;;;;;;;;;;5034976;28;20030;-60
2022/04/01 13:44:23;;;;;;;9.85;1.98;;;;;;;;;;5034908;28;20466;-62
2022/04/01 13:46:49;;;;;;;6.55;2.00;;;;;;;;;;5034280;28;20033;-60
2022/04/01 13:49:15;;;;;;;11.82;2.25;;;;;;;;;;5034789;28;20030;-61
2022/04/01 13:51:42;;;;;;;9.70;2.58;;;;;;;;;;5034242;28;20071;-60
2022/04/01 13:54:07;;;;;;;7.25;1.85;;;;;;;;;;5034834;28;20108;-62
2022/04/01 13:56:33;;;;;;;9.38;1.67;;;;;;;;;;5034403;28;20526;-63
2022/04/01 13:59:00;;;;;;;9.35;2.47;;;;;;;;;;5034566;28;20443;-62
2022/04/01 14:01:26;;;;;;;8.25;2.00;;;;;;;;;;5034276;28;20037;-61
2022/04/01 14:03:51;;;;;;;13.90;2.92;;;;;;;;;;5034466;28;20029;-61
2022/04/01 14:06:17;;;;;;;10.88;2.88;;;;;;;;;;5034621;28;20028;-61
2022/04/01 14:08:43;;;;;;;13.15;3.22;;;;;;;;;;5034403;28;20112;-61
2022/04/01 14:11:09;;;;;;;8.55;2.83;;;;;;;;;;5034285;28;20021;-60
2022/04/01 14:13:35;;;;;;;12.25;4.70;;;;;;;;;;5034213;28;20363;-60
2022/04/01 14:16:02;;;;;;;14.05;5.50;;;;;;;;;;5034237;28;20442;-61
2022/04/01 14:18:27;;;;;;;5.95;2.13;;;;;;;;;;5033969;28;20089;-64
2022/04/01 14:20:57;;;;;;;10.82;5.05;;;;;;;;;;5034158;28;20585;-60
2022/04/01 14:23:31;;;;;;;17.27;6.63;;;;;;;;;;5034231;28;20033;-62
2022/04/01 14:26:04;;;;;;;12.55;2.30;;;;;;;;;;5034061;28;20068;-63
2022/04/01 14:28:33;;;;;;;8.45;2.40;;;;;;;;;;5034222;28;20101;-63
2022/04/01 14:30:59;;;;;;;6.10;2.00;;;;;;;;;;5033768;28;20025;-63
2022/04/01 14:33:25;;;;;;;11.95;2.00;;;;;;;;;;5033996;28;20022;-60
2022/04/01 14:35:50;;;;;;;7.15;2.00;;;;;;;;;;5033978;28;20378;-61
2022/04/01 14:38:17;;;;;;;7.78;2.45;;;;;;;;;;5033887;28;20022;-61
2022/04/01 14:40:42;;;;;;;9.43;1.98;;;;;;;;;;5033850;28;20112;-61
2022/04/01 14:43:08;;;;;;;8.43;2.35;;;;;;;;;;5033626;28;20523;-60
2022/04/01 14:45:36;;;;;;;8.00;2.00;;;;;;;;;;5033725;28;20379;-60
2022/04/01 14:48:03;;;;;;;8.05;2.47;;;;;;;;;;5033719;28;20022;-62
2022/04/01 14:50:29;;;;;;;9.65;2.30;;;;;;;;;;5032919;28;20099;-61
2022/04/01 14:52:54;;;;;;;5.50;1.90;;;;;;;;;;5033627;28;20108;-59
2022/04/01 14:55:20;;;;;;;8.77;1.88;;;;;;;;;;5033193;28;20084;-60
2022/04/01 14:57:46;;;;;;;8.02;2.15;;;;;;;;;;5031451;28;20025;-62
2022/04/01 15:00:15;;;;;;;32.42;11.75;;;;;;;;;;5033517;28;20029;-60
2022/04/01 15:02:41;;;;;;;50.13;17.13;;;;;;;;;;5032766;28;20029;-62
2022/04/01 15:05:13;;;;;;;15.50;5.50;;;;;;;;;;5033211;28;20045;-61
2022/04/01 15:07:43;;;;;;;7.75;3.28;;;;;;;;;;5032891;28;20434;-60
2022/04/01 15:10:09;;;;;;;10.13;2.28;;;;;;;;;;5033267;28;20541;-60
2022/04/01 15:12:36;;;;;;;6.20;1.90;;;;;;;;;;5033269;28;20029;-61